sensor_id;sensor_type;location;lat;lon;timestamp;temperature;humidity
10566;DHT22;5331;48.148;16.326;2024-02-14T00:00:52;4.20;1.00
10566;DHT22;5331;48.148;16.326;2024-02-14T00:03:19;4.10;1.00
10566;DHT22;5331;48.148;16.326;2024-02-14T00:05:46;4.10;1.00
10566;DHT22;5331;48.148;16.326;2024-02-14T00:08:12;4.10;1.00
10566;DHT22;5331;48.148;16.326;2024-02-14T00:10:40;4.10;1.00
10566;DHT22;5331;48.148;16.326;2024-02-14T00:13:06;4.00;1.00
10566;DHT22;5331;48.148;16.326;2024-02-14T00:15:34;3.90;1.00
10566;DHT22;5331;48.148;16.326;2024-02-14T00:18:00;3.90;1.00
10566;DHT22;5331;48.148;16.326;2024-02-14T00:20:27;3.80;1.00
10566;DHT22;5331;48.148;16.326;2024-02-14T00:38:34;3.30;1.00
10566;DHT22;5331;48.148;16.326;2024-02-14T00:41:01;3.30;1.00
10566;DHT22;5331;48.148;16.326;2024-02-14T00:43:27;3.20;1.00
10566;DHT22;5331;48.148;16.326;2024-02-14T00:45:53;3.10;1.00
10566;DHT22;5331;48.148;16.326;2024-02-14T00:48:22;3.00;1.00
10566;DHT22;5331;48.148;16.326;2024-02-14T00:50:48;3.00;1.00
10566;DHT22;5331;48.148;16.326;2024-02-14T00:53:14;2.90;1.00
10566;DHT22;5331;48.148;16.326;2024-02-14T01:09:06;3.00;1.00
10566;DHT22;5331;48.148;16.326;2024-02-14T01:11:34;2.90;1.00
10566;DHT22;5331;48.148;16.326;2024-02-14T01:14:00;2.80;1.00
10566;DHT22;5331;48.148;16.326;2024-02-14T01:16:27;2.80;1.00
10566;DHT22;5331;48.148;16.326;2024-02-14T01:18:53;2.70;1.00
10566;DHT22;5331;48.148;16.326;2024-02-14T01:21:19;2.60;1.00
10566;DHT22;5331;48.148;16.326;2024-02-14T01:23:45;2.60;1.00
10566;DHT22;5331;48.148;16.326;2024-02-14T01:39:50;2.60;1.00
10566;DHT22;5331;48.148;16.326;2024-02-14T01:42:16;2.40;1.00
10566;DHT22;5331;48.148;16.326;2024-02-14T01:44:42;2.30;1.00
10566;DHT22;5331;48.148;16.326;2024-02-14T01:47:10;2.30;1.00
10566;DHT22;5331;48.148;16.326;2024-02-14T01:49:37;2.30;1.00
10566;DHT22;5331;48.148;16.326;2024-02-14T01:52:05;2.30;1.00
10566;DHT22;5331;48.148;16.326;2024-02-14T01:54:31;2.20;1.00
10566;DHT22;5331;48.148;16.326;2024-02-14T02:10:47;2.20;1.00
10566;DHT22;5331;48.148;16.326;2024-02-14T02:13:13;2.10;1.00
10566;DHT22;5331;48.148;16.326;2024-02-14T02:15:41;2.10;1.00
10566;DHT22;5331;48.148;16.326;2024-02-14T02:18:10;2.00;1.00
10566;DHT22;5331;48.148;16.326;2024-02-14T02:20:37;2.10;1.00
10566;DHT22;5331;48.148;16.326;2024-02-14T02:23:04;2.00;1.00
10566;DHT22;5331;48.148;16.326;2024-02-14T02:25:30;2.00;1.00
10566;DHT22;5331;48.148;16.326;2024-02-14T02:41:05;2.20;1.00
10566;DHT22;5331;48.148;16.326;2024-02-14T02:43:32;2.10;1.00
10566;DHT22;5331;48.148;16.326;2024-02-14T02:45:58;2.10;1.00
10566;DHT22;5331;48.148;16.326;2024-02-14T02:48:25;2.00;1.00
10566;DHT22;5331;48.148;16.326;2024-02-14T02:50:51;1.90;1.00
10566;DHT22;5331;48.148;16.326;2024-02-14T02:53:18;1.90;1.00
10566;DHT22;5331;48.148;16.326;2024-02-14T02:55:45;1.90;1.00
10566;DHT22;5331;48.148;16.326;2024-02-14T03:13:33;1.90;1.00
10566;DHT22;5331;48.148;16.326;2024-02-14T03:16:01;1.80;1.00
10566;DHT22;5331;48.148;16.326;2024-02-14T03:18:27;1.70;1.00
10566;DHT22;5331;48.148;16.326;2024-02-14T03:20:53;1.70;1.00
10566;DHT22;5331;48.148;16.326;2024-02-14T03:23:20;1.70;1.00
10566;DHT22;5331;48.148;16.326;2024-02-14T03:25:46;1.70;1.00
10566;DHT22;5331;48.148;16.326;2024-02-14T03:28:12;1.60;1.00
10566;DHT22;5331;48.148;16.326;2024-02-14T03:48:30;1.50;1.00
10566;DHT22;5331;48.148;16.326;2024-02-14T03:50:57;1.50;1.00
10566;DHT22;5331;48.148;16.326;2024-02-14T03:53:23;1.50;1.00
10566;DHT22;5331;48.148;16.326;2024-02-14T03:55:49;1.50;1.00
10566;DHT22;5331;48.148;16.326;2024-02-14T03:58:15;1.50;1.00
10566;DHT22;5331;48.148;16.326;2024-02-14T04:00:48;1.40;1.00
10566;DHT22;5331;48.148;16.326;2024-02-14T04:03:14;1.40;1.00
10566;DHT22;5331;48.148;16.326;2024-02-14T04:23:07;1.50;1.00
10566;DHT22;5331;48.148;16.326;2024-02-14T04:25:33;1.30;1.00
10566;DHT22;5331;48.148;16.326;2024-02-14T04:27:59;1.30;1.00
10566;DHT22;5331;48.148;16.326;2024-02-14T04:30:25;1.30;1.00
10566;DHT22;5331;48.148;16.326;2024-02-14T04:32:52;1.30;1.00
10566;DHT22;5331;48.148;16.326;2024-02-14T04:35:19;1.30;1.00
10566;DHT22;5331;48.148;16.326;2024-02-14T04:37:46;1.30;1.00
10566;DHT22;5331;48.148;16.326;2024-02-14T04:53:25;1.30;1.00
10566;DHT22;5331;48.148;16.326;2024-02-14T04:55:51;1.30;1.00
10566;DHT22;5331;48.148;16.326;2024-02-14T04:58:17;1.30;1.00
10566;DHT22;5331;48.148;16.326;2024-02-14T05:00:44;1.30;1.00
10566;DHT22;5331;48.148;16.326;2024-02-14T05:03:10;1.30;1.00
10566;DHT22;5331;48.148;16.326;2024-02-14T05:05:36;1.20;1.00
10566;DHT22;5331;48.148;16.326;2024-02-14T05:08:04;1.20;1.00
10566;DHT22;5331;48.148;16.326;2024-02-14T05:28:22;1.10;1.00
10566;DHT22;5331;48.148;16.326;2024-02-14T05:30:48;1.10;1.00
10566;DHT22;5331;48.148;16.326;2024-02-14T05:33:14;1.10;1.00
10566;DHT22;5331;48.148;16.326;2024-02-14T05:35:40;1.00;1.00
10566;DHT22;5331;48.148;16.326;2024-02-14T05:38:07;1.00;1.00
10566;DHT22;5331;48.148;16.326;2024-02-14T05:40:33;1.00;1.00
10566;DHT22;5331;48.148;16.326;2024-02-14T05:42:59;1.00;1.00
10566;DHT22;5331;48.148;16.326;2024-02-14T06:04:34;1.40;1.00
10566;DHT22;5331;48.148;16.326;2024-02-14T06:07:01;1.20;1.00
10566;DHT22;5331;48.148;16.326;2024-02-14T06:09:28;1.20;1.00
10566;DHT22;5331;48.148;16.326;2024-02-14T06:11:54;1.30;1.00
10566;DHT22;5331;48.148;16.326;2024-02-14T06:14:20;1.30;1.00
10566;DHT22;5331;48.148;16.326;2024-02-14T06:16:47;1.20;1.00
10566;DHT22;5331;48.148;16.326;2024-02-14T06:19:13;1.20;1.00
10566;DHT22;5331;48.148;16.326;2024-02-14T06:21:39;1.20;1.00
10566;DHT22;5331;48.148;16.326;2024-02-14T06:37:09;1.60;1.00
10566;DHT22;5331;48.148;16.326;2024-02-14T06:39:35;1.50;1.00
10566;DHT22;5331;48.148;16.326;2024-02-14T06:42:01;1.60;1.00
10566;DHT22;5331;48.148;16.326;2024-02-14T06:44:27;1.70;1.00
10566;DHT22;5331;48.148;16.326;2024-02-14T06:46:54;1.80;1.00
10566;DHT22;5331;48.148;16.326;2024-02-14T06:49:20;1.90;1.00
10566;DHT22;5331;48.148;16.326;2024-02-14T06:51:46;2.00;1.00
10566;DHT22;5331;48.148;16.326;2024-02-14T07:08:14;3.50;1.00
10566;DHT22;5331;48.148;16.326;2024-02-14T07:10:40;3.80;1.00
10566;DHT22;5331;48.148;16.326;2024-02-14T07:13:06;4.00;1.00
10566;DHT22;5331;48.148;16.326;2024-02-14T07:15:32;4.20;1.00
10566;DHT22;5331;48.148;16.326;2024-02-14T07:17:59;4.40;1.00
10566;DHT22;5331;48.148;16.326;2024-02-14T07:20:25;4.50;1.00
10566;DHT22;5331;48.148;16.326;2024-02-14T07:22:52;4.60;1.00
10566;DHT22;5331;48.148;16.326;2024-02-14T07:38:25;5.50;1.00
10566;DHT22;5331;48.148;16.326;2024-02-14T07:40:51;5.30;1.00
10566;DHT22;5331;48.148;16.326;2024-02-14T07:43:18;5.20;1.00
10566;DHT22;5331;48.148;16.326;2024-02-14T07:45:44;5.20;1.00
10566;DHT22;5331;48.148;16.326;2024-02-14T07:48:10;5.20;1.00
10566;DHT22;5331;48.148;16.326;2024-02-14T07:50:36;5.10;1.00
10566;DHT22;5331;48.148;16.326;2024-02-14T07:53:03;5.10;1.00
10566;DHT22;5331;48.148;16.326;2024-02-14T07:55:30;5.10;1.00
10566;DHT22;5331;48.148;16.326;2024-02-14T08:11:01;5.70;1.00
10566;DHT22;5331;48.148;16.326;2024-02-14T08:13:27;5.60;1.00
10566;DHT22;5331;48.148;16.326;2024-02-14T08:15:54;5.60;1.00
10566;DHT22;5331;48.148;16.326;2024-02-14T08:18:20;5.60;1.00
10566;DHT22;5331;48.148;16.326;2024-02-14T08:20:46;5.70;1.00
10566;DHT22;5331;48.148;16.326;2024-02-14T08:23:12;5.70;1.00
10566;DHT22;5331;48.148;16.326;2024-02-14T08:25:38;5.70;1.00
10566;DHT22;5331;48.148;16.326;2024-02-14T08:28:13;5.70;1.00
10566;DHT22;5331;48.148;16.326;2024-02-14T08:46:10;6.90;1.00
10566;DHT22;5331;48.148;16.326;2024-02-14T08:48:36;6.80;1.00
10566;DHT22;5331;48.148;16.326;2024-02-14T08:51:07;6.80;1.00
10566;DHT22;5331;48.148;16.326;2024-02-14T08:53:34;7.10;1.00
10566;DHT22;5331;48.148;16.326;2024-02-14T08:56:00;7.50;1.00
10566;DHT22;5331;48.148;16.326;2024-02-14T08:58:27;7.90;1.00
10566;DHT22;5331;48.148;16.326;2024-02-14T09:00:53;8.20;1.00
10566;DHT22;5331;48.148;16.326;2024-02-14T09:03:20;8.60;1.00
10566;DHT22;5331;48.148;16.326;2024-02-14T09:21:12;10.20;1.00
10566;DHT22;5331;48.148;16.326;2024-02-14T09:23:41;10.10;1.00
10566;DHT22;5331;48.148;16.326;2024-02-14T09:26:07;10.30;1.00
10566;DHT22;5331;48.148;16.326;2024-02-14T09:28:34;10.60;1.00
10566;DHT22;5331;48.148;16.326;2024-02-14T09:31:01;10.70;1.00
10566;DHT22;5331;48.148;16.326;2024-02-14T09:33:29;10.90;1.00
10566;DHT22;5331;48.148;16.326;2024-02-14T09:35:56;10.90;1.00
10566;DHT22;5331;48.148;16.326;2024-02-14T09:38:23;11.00;1.00
10566;DHT22;5331;48.148;16.326;2024-02-14T09:58:40;11.80;1.00
10566;DHT22;5331;48.148;16.326;2024-02-14T10:01:06;11.80;1.00
10566;DHT22;5331;48.148;16.326;2024-02-14T10:03:33;11.70;1.00
10566;DHT22;5331;48.148;16.326;2024-02-14T10:05:59;11.70;1.00
10566;DHT22;5331;48.148;16.326;2024-02-14T10:08:25;11.90;1.00
10566;DHT22;5331;48.148;16.326;2024-02-14T10:10:52;12.20;1.00
10566;DHT22;5331;48.148;16.326;2024-02-14T10:13:18;12.20;1.00
10566;DHT22;5331;48.148;16.326;2024-02-14T10:33:38;12.20;1.00
10566;DHT22;5331;48.148;16.326;2024-02-14T10:36:07;12.20;1.00
10566;DHT22;5331;48.148;16.326;2024-02-14T10:38:34;12.10;1.00
10566;DHT22;5331;48.148;16.326;2024-02-14T10:41:02;11.90;1.00
10566;DHT22;5331;48.148;16.326;2024-02-14T10:43:28;12.20;1.00
10566;DHT22;5331;48.148;16.326;2024-02-14T10:45:55;12.30;1.00
10566;DHT22;5331;48.148;16.326;2024-02-14T10:48:22;12.10;1.00
10566;DHT22;5331;48.148;16.326;2024-02-14T11:06:17;12.70;1.00
10566;DHT22;5331;48.148;16.326;2024-02-14T11:08:55;12.70;1.00
10566;DHT22;5331;48.148;16.326;2024-02-14T11:11:22;12.80;1.00
10566;DHT22;5331;48.148;16.326;2024-02-14T11:13:52;12.80;1.00
10566;DHT22;5331;48.148;16.326;2024-02-14T11:16:23;13.00;1.00
10566;DHT22;5331;48.148;16.326;2024-02-14T11:18:50;13.20;1.00
10566;DHT22;5331;48.148;16.326;2024-02-14T11:21:20;13.10;1.00
10566;DHT22;5331;48.148;16.326;2024-02-14T11:41:33;12.30;1.00
10566;DHT22;5331;48.148;16.326;2024-02-14T11:44:01;12.40;1.00
10566;DHT22;5331;48.148;16.326;2024-02-14T11:46:30;12.30;1.00
10566;DHT22;5331;48.148;16.326;2024-02-14T11:48:56;12.00;1.00
10566;DHT22;5331;48.148;16.326;2024-02-14T11:51:23;11.90;1.00
10566;DHT22;5331;48.148;16.326;2024-02-14T11:53:49;12.00;1.00
10566;DHT22;5331;48.148;16.326;2024-02-14T11:56:15;12.20;1.00
10566;DHT22;5331;48.148;16.326;2024-02-14T12:12:22;12.90;1.00
10566;DHT22;5331;48.148;16.326;2024-02-14T12:14:51;12.80;1.00
10566;DHT22;5331;48.148;16.326;2024-02-14T12:17:21;12.60;1.00
10566;DHT22;5331;48.148;16.326;2024-02-14T12:19:50;12.70;1.00
10566;DHT22;5331;48.148;16.326;2024-02-14T12:22:17;12.70;1.00
10566;DHT22;5331;48.148;16.326;2024-02-14T12:24:45;12.70;1.00
10566;DHT22;5331;48.148;16.326;2024-02-14T12:40:26;13.30;1.00
10566;DHT22;5331;48.148;16.326;2024-02-14T12:42:52;13.20;1.00
10566;DHT22;5331;48.148;16.326;2024-02-14T12:45:19;13.20;1.00
10566;DHT22;5331;48.148;16.326;2024-02-14T12:47:45;13.20;1.00
10566;DHT22;5331;48.148;16.326;2024-02-14T12:50:11;13.30;1.00
10566;DHT22;5331;48.148;16.326;2024-02-14T12:52:37;13.30;1.00
10566;DHT22;5331;48.148;16.326;2024-02-14T12:55:04;13.30;1.00
10566;DHT22;5331;48.148;16.326;2024-02-14T13:15:17;13.40;1.00
10566;DHT22;5331;48.148;16.326;2024-02-14T13:17:43;13.20;1.00
10566;DHT22;5331;48.148;16.326;2024-02-14T13:20:11;13.10;1.00
10566;DHT22;5331;48.148;16.326;2024-02-14T13:22:37;13.10;1.00
10566;DHT22;5331;48.148;16.326;2024-02-14T13:25:03;13.10;1.00
10566;DHT22;5331;48.148;16.326;2024-02-14T13:27:33;13.10;1.00
10566;DHT22;5331;48.148;16.326;2024-02-14T13:29:59;13.10;1.00
10566;DHT22;5331;48.148;16.326;2024-02-14T13:45:44;13.40;1.00
10566;DHT22;5331;48.148;16.326;2024-02-14T13:48:12;13.40;1.00
10566;DHT22;5331;48.148;16.326;2024-02-14T13:50:38;13.30;1.00
10566;DHT22;5331;48.148;16.326;2024-02-14T13:53:04;13.20;1.00
10566;DHT22;5331;48.148;16.326;2024-02-14T13:55:30;13.20;1.00
10566;DHT22;5331;48.148;16.326;2024-02-14T13:57:57;13.20;1.00
10566;DHT22;5331;48.148;16.326;2024-02-14T14:00:23;13.20;1.00
10566;DHT22;5331;48.148;16.326;2024-02-14T14:15:53;13.20;1.00
10566;DHT22;5331;48.148;16.326;2024-02-14T14:18:20;13.20;1.00
10566;DHT22;5331;48.148;16.326;2024-02-14T14:20:47;13.00;1.00
10566;DHT22;5331;48.148;16.326;2024-02-14T14:23:13;12.90;1.00
10566;DHT22;5331;48.148;16.326;2024-02-14T14:25:39;12.80;1.00
10566;DHT22;5331;48.148;16.326;2024-02-14T14:28:05;12.80;1.00
10566;DHT22;5331;48.148;16.326;2024-02-14T14:30:33;12.70;1.00
10566;DHT22;5331;48.148;16.326;2024-02-14T14:33:00;12.60;1.00
10566;DHT22;5331;48.148;16.326;2024-02-14T14:53:15;12.70;1.00
10566;DHT22;5331;48.148;16.326;2024-02-14T14:55:50;12.40;1.00
10566;DHT22;5331;48.148;16.326;2024-02-14T14:58:16;12.30;1.00
10566;DHT22;5331;48.148;16.326;2024-02-14T15:00:43;12.30;1.00
10566;DHT22;5331;48.148;16.326;2024-02-14T15:03:09;12.20;1.00
10566;DHT22;5331;48.148;16.326;2024-02-14T15:05:36;12.20;1.00
10566;DHT22;5331;48.148;16.326;2024-02-14T15:08:04;12.10;1.00
10566;DHT22;5331;48.148;16.326;2024-02-14T15:23:57;12.30;1.00
10566;DHT22;5331;48.148;16.326;2024-02-14T15:26:23;12.20;1.00
10566;DHT22;5331;48.148;16.326;2024-02-14T15:28:50;12.00;1.00
10566;DHT22;5331;48.148;16.326;2024-02-14T15:31:24;12.00;1.00
10566;DHT22;5331;48.148;16.326;2024-02-14T15:34:08;12.00;1.00
10566;DHT22;5331;48.148;16.326;2024-02-14T15:36:36;11.90;1.00
10566;DHT22;5331;48.148;16.326;2024-02-14T15:39:03;11.80;1.00
10566;DHT22;5331;48.148;16.326;2024-02-14T15:56:58;11.90;1.00
10566;DHT22;5331;48.148;16.326;2024-02-14T15:59:26;11.80;1.00
10566;DHT22;5331;48.148;16.326;2024-02-14T16:01:53;11.70;1.00
10566;DHT22;5331;48.148;16.326;2024-02-14T16:04:19;11.70;1.00
10566;DHT22;5331;48.148;16.326;2024-02-14T16:06:46;11.70;1.00
10566;DHT22;5331;48.148;16.326;2024-02-14T16:09:12;11.60;1.00
10566;DHT22;5331;48.148;16.326;2024-02-14T16:11:38;11.50;1.00
10566;DHT22;5331;48.148;16.326;2024-02-14T16:33:16;11.60;1.00
10566;DHT22;5331;48.148;16.326;2024-02-14T16:35:42;11.50;1.00
10566;DHT22;5331;48.148;16.326;2024-02-14T16:38:08;11.50;1.00
10566;DHT22;5331;48.148;16.326;2024-02-14T16:40:34;11.50;1.00
10566;DHT22;5331;48.148;16.326;2024-02-14T16:43:00;11.40;1.00
10566;DHT22;5331;48.148;16.326;2024-02-14T16:45:27;11.40;1.00
10566;DHT22;5331;48.148;16.326;2024-02-14T16:47:53;11.30;1.00
10566;DHT22;5331;48.148;16.326;2024-02-14T16:50:20;11.40;1.00
10566;DHT22;5331;48.148;16.326;2024-02-14T17:10:35;11.30;1.00
10566;DHT22;5331;48.148;16.326;2024-02-14T17:13:01;11.20;1.00
10566;DHT22;5331;48.148;16.326;2024-02-14T17:15:27;11.10;1.00
10566;DHT22;5331;48.148;16.326;2024-02-14T17:17:54;11.10;1.00
10566;DHT22;5331;48.148;16.326;2024-02-14T17:20:20;11.10;1.00
10566;DHT22;5331;48.148;16.326;2024-02-14T17:22:46;11.10;1.00
10566;DHT22;5331;48.148;16.326;2024-02-14T17:25:12;11.10;1.00
10566;DHT22;5331;48.148;16.326;2024-02-14T17:40:55;11.40;1.00
10566;DHT22;5331;48.148;16.326;2024-02-14T17:43:21;11.20;1.00
10566;DHT22;5331;48.148;16.326;2024-02-14T17:45:47;11.20;1.00
10566;DHT22;5331;48.148;16.326;2024-02-14T17:48:14;11.20;1.00
10566;DHT22;5331;48.148;16.326;2024-02-14T17:50:40;11.20;1.00
10566;DHT22;5331;48.148;16.326;2024-02-14T17:53:06;11.10;1.00
10566;DHT22;5331;48.148;16.326;2024-02-14T17:55:32;11.10;1.00
10566;DHT22;5331;48.148;16.326;2024-02-14T18:11:01;11.30;1.00
10566;DHT22;5331;48.148;16.326;2024-02-14T18:13:28;11.20;1.00
10566;DHT22;5331;48.148;16.326;2024-02-14T18:15:54;11.20;1.00
10566;DHT22;5331;48.148;16.326;2024-02-14T18:18:20;11.10;1.00
10566;DHT22;5331;48.148;16.326;2024-02-14T18:20:47;11.10;1.00
10566;DHT22;5331;48.148;16.326;2024-02-14T18:23:13;11.20;1.00
10566;DHT22;5331;48.148;16.326;2024-02-14T18:25:41;11.20;1.00
10566;DHT22;5331;48.148;16.326;2024-02-14T18:43:34;11.30;1.00
10566;DHT22;5331;48.148;16.326;2024-02-14T18:46:00;11.20;1.00
10566;DHT22;5331;48.148;16.326;2024-02-14T18:48:26;11.10;1.00
10566;DHT22;5331;48.148;16.326;2024-02-14T18:50:53;11.10;1.00
10566;DHT22;5331;48.148;16.326;2024-02-14T18:53:19;11.10;1.00
10566;DHT22;5331;48.148;16.326;2024-02-14T18:55:45;11.20;1.00
10566;DHT22;5331;48.148;16.326;2024-02-14T18:58:11;11.20;1.00
10566;DHT22;5331;48.148;16.326;2024-02-14T19:13:38;11.20;1.00
10566;DHT22;5331;48.148;16.326;2024-02-14T19:16:06;11.10;1.00
10566;DHT22;5331;48.148;16.326;2024-02-14T19:18:32;11.10;1.00
10566;DHT22;5331;48.148;16.326;2024-02-14T19:20:59;11.10;1.00
10566;DHT22;5331;48.148;16.326;2024-02-14T19:23:25;11.10;1.00
10566;DHT22;5331;48.148;16.326;2024-02-14T19:25:52;11.20;1.00
10566;DHT22;5331;48.148;16.326;2024-02-14T19:28:20;11.00;1.00
10566;DHT22;5331;48.148;16.326;2024-02-14T19:30:47;11.00;1.00
10566;DHT22;5331;48.148;16.326;2024-02-14T19:50:45;11.20;1.00
10566;DHT22;5331;48.148;16.326;2024-02-14T19:53:11;11.00;1.00
10566;DHT22;5331;48.148;16.326;2024-02-14T19:55:39;11.00;1.00
10566;DHT22;5331;48.148;16.326;2024-02-14T19:58:05;10.90;1.00
10566;DHT22;5331;48.148;16.326;2024-02-14T20:00:32;10.90;1.00
10566;DHT22;5331;48.148;16.326;2024-02-14T20:02:59;10.90;1.00
10566;DHT22;5331;48.148;16.326;2024-02-14T20:05:27;10.90;1.00
10566;DHT22;5331;48.148;16.326;2024-02-14T20:29:13;11.20;1.00
10566;DHT22;5331;48.148;16.326;2024-02-14T20:31:39;11.20;1.00
10566;DHT22;5331;48.148;16.326;2024-02-14T20:34:05;11.20;1.00
10566;DHT22;5331;48.148;16.326;2024-02-14T20:36:32;11.20;1.00
10566;DHT22;5331;48.148;16.326;2024-02-14T20:39:00;11.30;1.00
10566;DHT22;5331;48.148;16.326;2024-02-14T20:41:28;11.30;1.00
10566;DHT22;5331;48.148;16.326;2024-02-14T20:43:55;11.30;1.00
10566;DHT22;5331;48.148;16.326;2024-02-14T21:01:47;11.40;1.00
10566;DHT22;5331;48.148;16.326;2024-02-14T21:04:14;11.30;1.00
10566;DHT22;5331;48.148;16.326;2024-02-14T21:06:40;11.30;1.00
10566;DHT22;5331;48.148;16.326;2024-02-14T21:09:06;11.20;1.00
10566;DHT22;5331;48.148;16.326;2024-02-14T21:11:34;11.20;1.00
10566;DHT22;5331;48.148;16.326;2024-02-14T21:14:01;11.20;1.00
10566;DHT22;5331;48.148;16.326;2024-02-14T21:16:27;11.20;1.00
10566;DHT22;5331;48.148;16.326;2024-02-14T21:36:07;11.50;1.00
10566;DHT22;5331;48.148;16.326;2024-02-14T21:38:33;11.50;1.00
10566;DHT22;5331;48.148;16.326;2024-02-14T21:40:59;11.50;1.00
10566;DHT22;5331;48.148;16.326;2024-02-14T21:43:25;11.40;1.00
10566;DHT22;5331;48.148;16.326;2024-02-14T21:45:51;11.40;1.00
10566;DHT22;5331;48.148;16.326;2024-02-14T21:48:17;11.30;1.00
10566;DHT22;5331;48.148;16.326;2024-02-14T21:50:43;11.30;1.00
10566;DHT22;5331;48.148;16.326;2024-02-14T22:06:15;11.70;1.00
10566;DHT22;5331;48.148;16.326;2024-02-14T22:08:41;11.50;1.00
10566;DHT22;5331;48.148;16.326;2024-02-14T22:11:09;11.40;1.00
10566;DHT22;5331;48.148;16.326;2024-02-14T22:13:38;11.40;1.00
10566;DHT22;5331;48.148;16.326;2024-02-14T22:16:04;11.30;1.00
10566;DHT22;5331;48.148;16.326;2024-02-14T22:18:30;11.30;1.00
10566;DHT22;5331;48.148;16.326;2024-02-14T22:20:56;11.30;1.00
10566;DHT22;5331;48.148;16.326;2024-02-14T22:23:23;11.30;1.00
10566;DHT22;5331;48.148;16.326;2024-02-14T22:39:03;11.30;1.00
10566;DHT22;5331;48.148;16.326;2024-02-14T22:41:32;11.30;1.00
10566;DHT22;5331;48.148;16.326;2024-02-14T22:43:59;11.20;1.00
10566;DHT22;5331;48.148;16.326;2024-02-14T22:46:26;11.20;1.00
10566;DHT22;5331;48.148;16.326;2024-02-14T22:48:52;11.10;1.00
10566;DHT22;5331;48.148;16.326;2024-02-14T22:51:21;11.10;1.00
10566;DHT22;5331;48.148;16.326;2024-02-14T22:53:47;11.00;1.00
10566;DHT22;5331;48.148;16.326;2024-02-14T23:14:06;11.00;1.00
10566;DHT22;5331;48.148;16.326;2024-02-14T23:16:33;10.90;1.00
10566;DHT22;5331;48.148;16.326;2024-02-14T23:18:59;10.80;1.00
10566;DHT22;5331;48.148;16.326;2024-02-14T23:21:25;10.80;1.00
10566;DHT22;5331;48.148;16.326;2024-02-14T23:23:53;10.70;1.00
10566;DHT22;5331;48.148;16.326;2024-02-14T23:26:19;10.70;1.00
10566;DHT22;5331;48.148;16.326;2024-02-14T23:28:45;10.70;1.00
10566;DHT22;5331;48.148;16.326;2024-02-14T23:44:17;11.00;1.00
10566;DHT22;5331;48.148;16.326;2024-02-14T23:46:44;10.90;1.00
10566;DHT22;5331;48.148;16.326;2024-02-14T23:49:12;10.80;1.00
10566;DHT22;5331;48.148;16.326;2024-02-14T23:51:38;10.80;1.00
10566;DHT22;5331;48.148;16.326;2024-02-14T23:54:05;10.80;1.00
10566;DHT22;5331;48.148;16.326;2024-02-14T23:56:31;10.80;1.00
10566;DHT22;5331;48.148;16.326;2024-02-14T23:58:58;10.70;1.00
